PWSweather.com
Personal Weather Stations
Station Observations
WX47784
Tuolumne County, CA

Tuolumne County, CA

Lat: 37.9895, Lon: -120.2366

Elevation: 3065.3

Station Type:

Latest ConditionsUpdated 6:45:01 PM PDT Tuesday, Aug 20, 2019
Currently Today's Max Today's Min Today's Average
Temperature 77.9°F25.5°C 84.7°F29.3°C 62.2°F16.8°C 73.7°F23.2°C
Dew Point 54.3°F12.4°C 55.8°F13.2°C 49.1°F9.5°C 51.5°F10.8°C
Winds 0.4 mph NW0.6 kmh NW 1.7 mph -2.7 kmh - - 0.9 mph 1.4 kmh
Wind Gusts 0.7 mph1.1 kmh 2.3 mph3.7 kmh - -
Humidity 44% 63% 32% 47%
Pressure 26.78 in906.9 mb 26.82 in908.2 mb 26.77 in906.5 mb -
Hour Temp Dew Point Humidity Winds Wind Gusts Pressure Precip Precip Rate Daily Precip Total
06:45 PM 77.9°F25.5°C 54.3°F12.4°C 44% 0.4 mph NW0.6 kmh NW 0.7 mph1.1 kmh 26.78 in906.9 mb 0.00 in0.0 mm 0.00 in0.0 mm 0.00 in0.0 mm
06:40 PM 78.1°F25.6°C 53.8°F12.1°C 43% 0.5 mph WNW0.8 kmh WNW 0.7 mph1.1 kmh 26.78 in906.9 mb 0.00 in0.0 mm 0.00 in0.0 mm 0.00 in0.0 mm
06:35 PM 78.6°F25.9°C 54.3°F12.4°C 43% 0.2 mph W0.3 kmh W 0.4 mph0.6 kmh 26.78 in906.9 mb 0.00 in0.0 mm 0.00 in0.0 mm 0.00 in0.0 mm
06:30 PM 79.2°F26.2°C 53.4°F11.9°C 41% 0.4 mph NW0.6 kmh NW 1.1 mph1.8 kmh 26.78 in906.9 mb 0.00 in0.0 mm 0.00 in0.0 mm 0.00 in0.0 mm
06:25 PM 79.7°F26.5°C 54.0°F12.2°C 41% 0.7 mph W1.1 kmh W 1.1 mph1.8 kmh 26.78 in906.9 mb 0.00 in0.0 mm 0.00 in0.0 mm 0.00 in0.0 mm
06:19 PM 80.1°F26.7°C 52.9°F11.6°C 39% 0.6 mph WSW1.0 kmh WSW 0.9 mph1.4 kmh 26.78 in906.9 mb 0.00 in0.0 mm 0.00 in0.0 mm 0.00 in0.0 mm
06:14 PM 80.2°F26.8°C 53.1°F11.7°C 39% 1.1 mph WSW1.8 kmh WSW 2.3 mph3.7 kmh 26.78 in906.9 mb 0.00 in0.0 mm 0.00 in0.0 mm 0.00 in0.0 mm
06:09 PM 80.2°F26.8°C 53.1°F11.7°C 39% 0.8 mph W1.3 kmh W 2.2 mph3.5 kmh 26.78 in906.9 mb 0.00 in0.0 mm 0.00 in0.0 mm 0.00 in0.0 mm
06:04 PM 80.6°F27.0°C 52.7°F11.5°C 38% 0.9 mph WNW1.4 kmh WNW 1.8 mph2.9 kmh 26.78 in906.9 mb 0.00 in0.0 mm 0.00 in0.0 mm 0.00 in0.0 mm
05:59 PM 81.1°F27.3°C 53.1°F11.7°C 38% 0.9 mph W1.4 kmh W 1.5 mph2.4 kmh 26.78 in906.9 mb 0.00 in0.0 mm 0.00 in0.0 mm 0.00 in0.0 mm
05:54 PM 81.0°F27.2°C 53.1°F11.7°C 38% 0.4 mph W0.6 kmh W 0.6 mph1.0 kmh 26.78 in906.9 mb 0.00 in0.0 mm 0.00 in0.0 mm 0.00 in0.0 mm
05:49 PM 81.3°F27.4°C 52.5°F11.4°C 37% 1.3 mph W2.1 kmh W 1.7 mph2.7 kmh 26.78 in906.9 mb 0.00 in0.0 mm 0.00 in0.0 mm 0.00 in0.0 mm
05:44 PM 81.7°F27.6°C 53.6°F12.0°C 38% 1.2 mph WNW1.9 kmh WNW 1.8 mph2.9 kmh 26.78 in906.9 mb 0.00 in0.0 mm 0.00 in0.0 mm 0.00 in0.0 mm
05:39 PM 81.7°F27.6°C 52.9°F11.6°C 37% 0.9 mph SW1.4 kmh SW 1.5 mph2.4 kmh 26.78 in906.9 mb 0.00 in0.0 mm 0.00 in0.0 mm 0.00 in0.0 mm
05:34 PM 81.7°F27.6°C 53.6°F12.0°C 38% 0.8 mph WNW1.3 kmh WNW 1.1 mph1.8 kmh 26.78 in906.9 mb 0.00 in0.0 mm 0.00 in0.0 mm 0.00 in0.0 mm
05:29 PM 82.0°F27.8°C 52.5°F11.4°C 36% 0.5 mph W0.8 kmh W 0.8 mph1.3 kmh 26.78 in906.9 mb 0.00 in0.0 mm 0.00 in0.0 mm 0.00 in0.0 mm
05:24 PM 82.2°F27.9°C 52.7°F11.5°C 36% 0.7 mph W1.1 kmh W 1.2 mph1.9 kmh 26.78 in906.9 mb 0.00 in0.0 mm 0.00 in0.0 mm 0.00 in0.0 mm
05:19 PM 82.6°F28.1°C 52.9°F11.6°C 36% 0.5 mph SW0.8 kmh SW 1.1 mph1.8 kmh 26.78 in906.9 mb 0.00 in0.0 mm 0.00 in0.0 mm 0.00 in0.0 mm
05:14 PM 82.6°F28.1°C 52.9°F11.6°C 36% 0.9 mph SW1.4 kmh SW 2.0 mph3.2 kmh 26.78 in906.9 mb 0.00 in0.0 mm 0.00 in0.0 mm 0.00 in0.0 mm
05:09 PM 82.8°F28.2°C 51.6°F10.9°C 34% 1.1 mph SSW1.8 kmh SSW 2.1 mph3.4 kmh 26.77 in906.5 mb 0.00 in0.0 mm 0.00 in0.0 mm 0.00 in0.0 mm
05:04 PM 83.1°F28.4°C 51.8°F11.0°C 34% 1.2 mph SW1.9 kmh SW 2.3 mph3.7 kmh 26.78 in906.9 mb 0.00 in0.0 mm 0.00 in0.0 mm 0.00 in0.0 mm
04:59 PM 83.1°F28.4°C 51.8°F11.0°C 34% 0.8 mph SSW1.3 kmh SSW 1.2 mph1.9 kmh 26.78 in906.9 mb 0.00 in0.0 mm 0.00 in0.0 mm 0.00 in0.0 mm
04:55 PM 83.3°F28.5°C 51.3°F10.7°C 33% 0.8 mph SSW1.3 kmh SSW 1.3 mph2.1 kmh 26.78 in906.9 mb 0.00 in0.0 mm 0.00 in0.0 mm 0.00 in0.0 mm
04:50 PM 83.3°F28.5°C 51.3°F10.7°C 33% 0.8 mph SW1.3 kmh SW 1.5 mph2.4 kmh 26.78 in906.9 mb 0.00 in0.0 mm 0.00 in0.0 mm 0.00 in0.0 mm
04:45 PM 83.5°F28.6°C 51.4°F10.8°C 33% 0.7 mph SW1.1 kmh SW 1.2 mph1.9 kmh 26.77 in906.5 mb 0.00 in0.0 mm 0.00 in0.0 mm 0.00 in0.0 mm
04:40 PM 83.7°F28.7°C 51.4°F10.8°C 33% 0.8 mph SW1.3 kmh SW 1.3 mph2.1 kmh 26.77 in906.5 mb 0.00 in0.0 mm 0.00 in0.0 mm 0.00 in0.0 mm
04:35 PM 83.5°F28.6°C 51.4°F10.8°C 33% 0.4 mph SW0.6 kmh SW 1.2 mph1.9 kmh 26.77 in906.5 mb 0.00 in0.0 mm 0.00 in0.0 mm 0.00 in0.0 mm
04:30 PM 83.7°F28.7°C 51.4°F10.8°C 33% 0.5 mph SW0.8 kmh SW 1.0 mph1.6 kmh 26.77 in906.5 mb 0.00 in0.0 mm 0.00 in0.0 mm 0.00 in0.0 mm
04:25 PM 83.5°F28.6°C 51.4°F10.8°C 33% 0.8 mph WSW1.3 kmh WSW 1.4 mph2.3 kmh 26.77 in906.5 mb 0.00 in0.0 mm 0.00 in0.0 mm 0.00 in0.0 mm
04:20 PM 83.5°F28.6°C 51.4°F10.8°C 33% 0.7 mph WSW1.1 kmh WSW 1.1 mph1.8 kmh 26.78 in906.9 mb 0.00 in0.0 mm 0.00 in0.0 mm 0.00 in0.0 mm
04:15 PM 83.8°F28.8°C 50.9°F10.5°C 32% 0.5 mph SSW0.8 kmh SSW 1.0 mph1.6 kmh 26.78 in906.9 mb 0.00 in0.0 mm 0.00 in0.0 mm 0.00 in0.0 mm
04:10 PM 84.0°F28.9°C 51.8°F11.0°C 33% 1.0 mph WSW1.6 kmh WSW 1.4 mph2.3 kmh 26.78 in906.9 mb 0.00 in0.0 mm 0.00 in0.0 mm 0.00 in0.0 mm
04:05 PM 84.0°F28.9°C 51.8°F11.0°C 33% 0.9 mph SW1.4 kmh SW 1.7 mph2.7 kmh 26.78 in906.9 mb 0.00 in0.0 mm 0.00 in0.0 mm 0.00 in0.0 mm
04:00 PM 84.0°F28.9°C 51.8°F11.0°C 33% 0.5 mph WSW0.8 kmh WSW 0.9 mph1.4 kmh 26.78 in906.9 mb 0.00 in0.0 mm 0.00 in0.0 mm 0.00 in0.0 mm
03:55 PM 83.8°F28.8°C 51.6°F10.9°C 33% 0.7 mph SW1.1 kmh SW 1.3 mph2.1 kmh 26.78 in906.9 mb 0.00 in0.0 mm 0.00 in0.0 mm 0.00 in0.0 mm
03:50 PM 84.0°F28.9°C 51.8°F11.0°C 33% 0.8 mph WSW1.3 kmh WSW 1.7 mph2.7 kmh 26.78 in906.9 mb 0.00 in0.0 mm 0.00 in0.0 mm 0.00 in0.0 mm
03:45 PM 83.7°F28.7°C 52.3°F11.3°C 34% 0.7 mph SW1.1 kmh SW 1.3 mph2.1 kmh 26.78 in906.9 mb 0.00 in0.0 mm 0.00 in0.0 mm 0.00 in0.0 mm
03:40 PM 83.8°F28.8°C 51.6°F10.9°C 33% 1.3 mph W2.1 kmh W 1.9 mph3.1 kmh 26.78 in906.9 mb 0.00 in0.0 mm 0.00 in0.0 mm 0.00 in0.0 mm
03:35 PM 84.0°F28.9°C 51.8°F11.0°C 33% 1.3 mph W2.1 kmh W 1.8 mph2.9 kmh 26.78 in906.9 mb 0.00 in0.0 mm 0.00 in0.0 mm 0.00 in0.0 mm
03:30 PM 84.0°F28.9°C 51.8°F11.0°C 33% 0.9 mph SW1.4 kmh SW 1.6 mph2.6 kmh 26.78 in906.9 mb 0.00 in0.0 mm 0.00 in0.0 mm 0.00 in0.0 mm
03:24 PM 84.4°F29.1°C 52.2°F11.2°C 33% 0.8 mph SW1.3 kmh SW 1.2 mph1.9 kmh 26.78 in906.9 mb 0.00 in0.0 mm 0.00 in0.0 mm 0.00 in0.0 mm
03:20 PM 84.6°F29.2°C 52.3°F11.3°C 33% 0.4 mph SSW0.6 kmh SSW 0.6 mph1.0 kmh 26.78 in906.9 mb 0.00 in0.0 mm 0.00 in0.0 mm 0.00 in0.0 mm
03:15 PM 84.6°F29.2°C 52.3°F11.3°C 33% 1.2 mph S1.9 kmh S 1.9 mph3.1 kmh 26.78 in906.9 mb 0.00 in0.0 mm 0.00 in0.0 mm 0.00 in0.0 mm
03:10 PM 84.0°F28.9°C 51.8°F11.0°C 33% 0.5 mph SSW0.8 kmh SSW 0.8 mph1.3 kmh 26.78 in906.9 mb 0.00 in0.0 mm 0.00 in0.0 mm 0.00 in0.0 mm
03:05 PM 84.2°F29.0°C 52.0°F11.1°C 33% 1.3 mph SW2.1 kmh SW 1.7 mph2.7 kmh 26.79 in907.2 mb 0.00 in0.0 mm 0.00 in0.0 mm 0.00 in0.0 mm
03:00 PM 83.7°F28.7°C 52.3°F11.3°C 34% 1.1 mph SSW1.8 kmh SSW 1.7 mph2.7 kmh 26.79 in907.2 mb 0.00 in0.0 mm 0.00 in0.0 mm 0.00 in0.0 mm
02:55 PM 83.8°F28.8°C 52.5°F11.4°C 34% 0.8 mph W1.3 kmh W 0.9 mph1.4 kmh 26.79 in907.2 mb 0.00 in0.0 mm 0.00 in0.0 mm 0.00 in0.0 mm
02:50 PM 84.0°F28.9°C 51.8°F11.0°C 33% 1.4 mph SW2.3 kmh SW 2.1 mph3.4 kmh 26.79 in907.2 mb 0.00 in0.0 mm 0.00 in0.0 mm 0.00 in0.0 mm
02:45 PM 84.2°F29.0°C 52.9°F11.6°C 34% 0.7 mph SW1.1 kmh SW 1.1 mph1.8 kmh 26.79 in907.2 mb 0.00 in0.0 mm 0.00 in0.0 mm 0.00 in0.0 mm
02:40 PM 84.7°F29.3°C 52.5°F11.4°C 33% 1.1 mph W1.8 kmh W 1.4 mph2.3 kmh 26.79 in907.2 mb 0.00 in0.0 mm 0.00 in0.0 mm 0.00 in0.0 mm
02:35 PM 84.4°F29.1°C 52.2°F11.2°C 33% 1.2 mph SSW1.9 kmh SSW 1.9 mph3.1 kmh 26.79 in907.2 mb 0.00 in0.0 mm 0.00 in0.0 mm 0.00 in0.0 mm
02:30 PM 84.2°F29.0°C 52.9°F11.6°C 34% 1.0 mph SSW1.6 kmh SSW 1.7 mph2.7 kmh 26.80 in907.6 mb 0.00 in0.0 mm 0.00 in0.0 mm 0.00 in0.0 mm
02:25 PM 83.8°F28.8°C 52.5°F11.4°C 34% 0.7 mph W1.1 kmh W 1.3 mph2.1 kmh 26.80 in907.6 mb 0.00 in0.0 mm 0.00 in0.0 mm 0.00 in0.0 mm
02:20 PM 84.0°F28.9°C 52.7°F11.5°C 34% 0.7 mph W1.1 kmh W 1.2 mph1.9 kmh 26.80 in907.6 mb 0.00 in0.0 mm 0.00 in0.0 mm 0.00 in0.0 mm
02:15 PM 84.2°F29.0°C 52.9°F11.6°C 34% 0.7 mph WSW1.1 kmh WSW 1.0 mph1.6 kmh 26.80 in907.6 mb 0.00 in0.0 mm 0.00 in0.0 mm 0.00 in0.0 mm
02:10 PM 84.0°F28.9°C 52.7°F11.5°C 34% 0.4 mph W0.6 kmh W 0.6 mph1.0 kmh 26.80 in907.6 mb 0.00 in0.0 mm 0.00 in0.0 mm 0.00 in0.0 mm
02:05 PM 84.0°F28.9°C 51.8°F11.0°C 33% 0.8 mph WSW1.3 kmh WSW 1.7 mph2.7 kmh 26.80 in907.6 mb 0.00 in0.0 mm 0.00 in0.0 mm 0.00 in0.0 mm
02:00 PM 84.0°F28.9°C 51.8°F11.0°C 33% 0.8 mph SW1.3 kmh SW 1.2 mph1.9 kmh 26.80 in907.6 mb 0.00 in0.0 mm 0.00 in0.0 mm 0.00 in0.0 mm
01:55 PM 84.2°F29.0°C 52.0°F11.1°C 33% 0.5 mph S0.8 kmh S 0.8 mph1.3 kmh 26.80 in907.6 mb 0.00 in0.0 mm 0.00 in0.0 mm 0.00 in0.0 mm
01:50 PM 84.0°F28.9°C 51.8°F11.0°C 33% 0.8 mph SSW1.3 kmh SSW 1.4 mph2.3 kmh 26.80 in907.6 mb 0.00 in0.0 mm 0.00 in0.0 mm 0.00 in0.0 mm
01:45 PM 84.4°F29.1°C 52.2°F11.2°C 33% 0.9 mph WSW1.4 kmh WSW 2.3 mph3.7 kmh 26.80 in907.6 mb 0.00 in0.0 mm 0.00 in0.0 mm 0.00 in0.0 mm
01:40 PM 84.2°F29.0°C 52.0°F11.1°C 33% 0.9 mph SW1.4 kmh SW 1.4 mph2.3 kmh 26.80 in907.6 mb 0.00 in0.0 mm 0.00 in0.0 mm 0.00 in0.0 mm
01:35 PM 83.7°F28.7°C 51.4°F10.8°C 33% 1.1 mph SSW1.8 kmh SSW 1.8 mph2.9 kmh 26.80 in907.6 mb 0.00 in0.0 mm 0.00 in0.0 mm 0.00 in0.0 mm
01:30 PM 84.0°F28.9°C 51.8°F11.0°C 33% 0.5 mph SW0.8 kmh SW 1.3 mph2.1 kmh 26.80 in907.6 mb 0.00 in0.0 mm 0.00 in0.0 mm 0.00 in0.0 mm
01:25 PM 83.8°F28.8°C 51.6°F10.9°C 33% 0.8 mph SSW1.3 kmh SSW 1.3 mph2.1 kmh 26.80 in907.6 mb 0.00 in0.0 mm 0.00 in0.0 mm 0.00 in0.0 mm
01:20 PM 83.7°F28.7°C 51.4°F10.8°C 33% 0.9 mph SSW1.4 kmh SSW 1.1 mph1.8 kmh 26.80 in907.6 mb 0.00 in0.0 mm 0.00 in0.0 mm 0.00 in0.0 mm
01:15 PM 83.3°F28.5°C 53.6°F12.0°C 36% 0.8 mph SW1.3 kmh SW 1.2 mph1.9 kmh 26.81 in907.9 mb 0.00 in0.0 mm 0.00 in0.0 mm 0.00 in0.0 mm
01:10 PM 82.6°F28.1°C 52.9°F11.6°C 36% 1.0 mph WSW1.6 kmh WSW 1.4 mph2.3 kmh 26.81 in907.9 mb 0.00 in0.0 mm 0.00 in0.0 mm 0.00 in0.0 mm
01:05 PM 82.8°F28.2°C 51.6°F10.9°C 34% 1.0 mph SW1.6 kmh SW 1.3 mph2.1 kmh 26.81 in907.9 mb 0.00 in0.0 mm 0.00 in0.0 mm 0.00 in0.0 mm
01:00 PM 82.6°F28.1°C 52.9°F11.6°C 36% 0.5 mph W0.8 kmh W 0.9 mph1.4 kmh 26.81 in907.9 mb 0.00 in0.0 mm 0.00 in0.0 mm 0.00 in0.0 mm
12:55 PM 82.4°F28.0°C 52.7°F11.5°C 36% 1.1 mph SW1.8 kmh SW 2.1 mph3.4 kmh 26.81 in907.9 mb 0.00 in0.0 mm 0.00 in0.0 mm 0.00 in0.0 mm
12:50 PM 82.8°F28.2°C 53.1°F11.7°C 36% 0.6 mph WSW1.0 kmh WSW 1.3 mph2.1 kmh 26.81 in907.9 mb 0.00 in0.0 mm 0.00 in0.0 mm 0.00 in0.0 mm
12:45 PM 82.8°F28.2°C 53.8°F12.1°C 37% 1.2 mph SSW1.9 kmh SSW 1.7 mph2.7 kmh 26.81 in907.9 mb 0.00 in0.0 mm 0.00 in0.0 mm 0.00 in0.0 mm
12:40 PM 82.4°F28.0°C 53.6°F12.0°C 37% 0.7 mph S1.1 kmh S 1.5 mph2.4 kmh 26.81 in907.9 mb 0.00 in0.0 mm 0.00 in0.0 mm 0.00 in0.0 mm
12:35 PM 82.0°F27.8°C 53.2°F11.8°C 37% 0.4 mph W0.6 kmh W 0.6 mph1.0 kmh 26.81 in907.9 mb 0.00 in0.0 mm 0.00 in0.0 mm 0.00 in0.0 mm
12:30 PM 82.4°F28.0°C 53.6°F12.0°C 37% 1.0 mph WSW1.6 kmh WSW 1.6 mph2.6 kmh 26.81 in907.9 mb 0.00 in0.0 mm 0.00 in0.0 mm 0.00 in0.0 mm
12:25 PM 82.2°F27.9°C 54.1°F12.3°C 38% 1.0 mph SW1.6 kmh SW 2.1 mph3.4 kmh 26.81 in907.9 mb 0.00 in0.0 mm 0.00 in0.0 mm 0.00 in0.0 mm
12:20 PM 81.7°F27.6°C 53.6°F12.0°C 38% 0.7 mph WSW1.1 kmh WSW 1.2 mph1.9 kmh 26.81 in907.9 mb 0.00 in0.0 mm 0.00 in0.0 mm 0.00 in0.0 mm
12:15 PM 81.5°F27.5°C 53.4°F11.9°C 38% 0.8 mph WSW1.3 kmh WSW 1.7 mph2.7 kmh 26.81 in907.9 mb 0.00 in0.0 mm 0.00 in0.0 mm 0.00 in0.0 mm
12:10 PM 81.9°F27.7°C 53.8°F12.1°C 38% 0.5 mph W0.8 kmh W 1.3 mph2.1 kmh 26.81 in907.9 mb 0.00 in0.0 mm 0.00 in0.0 mm 0.00 in0.0 mm
12:05 PM 81.7°F27.6°C 53.6°F12.0°C 38% 1.0 mph SW1.6 kmh SW 2.0 mph3.2 kmh 26.82 in908.2 mb 0.00 in0.0 mm 0.00 in0.0 mm 0.00 in0.0 mm
12:00 PM 81.9°F27.7°C 54.5°F12.5°C 39% 1.2 mph WSW1.9 kmh WSW 2.3 mph3.7 kmh 26.82 in908.2 mb 0.00 in0.0 mm 0.00 in0.0 mm 0.00 in0.0 mm
11:55 AM 81.5°F27.5°C 53.4°F11.9°C 38% 0.9 mph SW1.4 kmh SW 1.5 mph2.4 kmh 26.82 in908.2 mb 0.00 in0.0 mm 0.00 in0.0 mm 0.00 in0.0 mm
11:50 AM 81.5°F27.5°C 53.4°F11.9°C 38% 0.7 mph SW1.1 kmh SW 0.9 mph1.4 kmh 26.82 in908.2 mb 0.00 in0.0 mm 0.00 in0.0 mm 0.00 in0.0 mm
11:45 AM 81.7°F27.6°C 52.9°F11.6°C 37% 0.7 mph W1.1 kmh W 1.3 mph2.1 kmh 26.82 in908.2 mb 0.00 in0.0 mm 0.00 in0.0 mm 0.00 in0.0 mm
11:40 AM 81.7°F27.6°C 52.9°F11.6°C 37% 0.8 mph SW1.3 kmh SW 1.4 mph2.3 kmh 26.82 in908.2 mb 0.00 in0.0 mm 0.00 in0.0 mm 0.00 in0.0 mm
11:35 AM 81.5°F27.5°C 53.4°F11.9°C 38% 0.5 mph SSW0.8 kmh SSW 1.1 mph1.8 kmh 26.82 in908.2 mb 0.00 in0.0 mm 0.00 in0.0 mm 0.00 in0.0 mm
11:30 AM 81.3°F27.4°C 52.5°F11.4°C 37% 0.5 mph WSW0.8 kmh WSW 1.1 mph1.8 kmh 26.82 in908.2 mb 0.00 in0.0 mm 0.00 in0.0 mm 0.00 in0.0 mm
11:25 AM 80.8°F27.1°C 52.2°F11.2°C 37% 0.3 mph S0.5 kmh S 0.6 mph1.0 kmh 26.81 in907.9 mb 0.00 in0.0 mm 0.00 in0.0 mm 0.00 in0.0 mm
11:20 AM 80.2°F26.8°C 52.3°F11.3°C 38% 0.7 mph SW1.1 kmh SW 0.9 mph1.4 kmh 26.82 in908.2 mb 0.00 in0.0 mm 0.00 in0.0 mm 0.00 in0.0 mm
11:15 AM 80.2°F26.8°C 51.6°F10.9°C 37% 0.1 mph SSE0.2 kmh SSE 0.4 mph0.6 kmh 26.81 in907.9 mb 0.00 in0.0 mm 0.00 in0.0 mm 0.00 in0.0 mm
11:10 AM 79.9°F26.6°C 52.0°F11.1°C 38% 0.6 mph SSW1.0 kmh SSW 1.0 mph1.6 kmh 26.82 in908.2 mb 0.00 in0.0 mm 0.00 in0.0 mm 0.00 in0.0 mm
11:05 AM 79.5°F26.4°C 51.6°F10.9°C 38% 0.5 mph S0.8 kmh S 0.8 mph1.3 kmh 26.82 in908.2 mb 0.00 in0.0 mm 0.00 in0.0 mm 0.00 in0.0 mm
11:00 AM 79.2°F26.2°C 51.4°F10.8°C 38% 0.4 mph SW0.6 kmh SW 0.7 mph1.1 kmh 26.82 in908.2 mb 0.00 in0.0 mm 0.00 in0.0 mm 0.00 in0.0 mm
10:55 AM 78.6°F25.9°C 50.9°F10.5°C 38% 0.6 mph S1.0 kmh S 1.3 mph2.1 kmh 26.82 in908.2 mb 0.00 in0.0 mm 0.00 in0.0 mm 0.00 in0.0 mm
10:50 AM 78.6°F25.9°C 51.6°F10.9°C 39% 0.4 mph SSW0.6 kmh SSW 0.6 mph1.0 kmh 26.82 in908.2 mb 0.00 in0.0 mm 0.00 in0.0 mm 0.00 in0.0 mm
10:45 AM 78.3°F25.7°C 51.3°F10.7°C 39% 0.5 mph SSW0.8 kmh SSW 0.9 mph1.4 kmh 26.82 in908.2 mb 0.00 in0.0 mm 0.00 in0.0 mm 0.00 in0.0 mm
10:40 AM 78.1°F25.6°C 51.1°F10.6°C 39% 0.8 mph SSW1.3 kmh SSW 1.2 mph1.9 kmh 26.82 in908.2 mb 0.00 in0.0 mm 0.00 in0.0 mm 0.00 in0.0 mm
10:35 AM 77.9°F25.5°C 50.9°F10.5°C 39% 0.2 mph S0.3 kmh S 0.7 mph1.1 kmh 26.82 in908.2 mb 0.00 in0.0 mm 0.00 in0.0 mm 0.00 in0.0 mm
10:30 AM 77.7°F25.4°C 50.7°F10.4°C 39% 0.4 mph S0.6 kmh S 0.5 mph0.8 kmh 26.82 in908.2 mb 0.00 in0.0 mm 0.00 in0.0 mm 0.00 in0.0 mm
10:25 AM 77.7°F25.4°C 52.2°F11.2°C 41% 0.5 mph S0.8 kmh S 0.7 mph1.1 kmh 26.82 in908.2 mb 0.00 in0.0 mm 0.00 in0.0 mm 0.00 in0.0 mm
10:20 AM 77.5°F25.3°C 52.0°F11.1°C 41% 0.2 mph S0.3 kmh S 0.4 mph0.6 kmh 26.81 in907.9 mb 0.00 in0.0 mm 0.00 in0.0 mm 0.00 in0.0 mm
10:15 AM 77.5°F25.3°C 53.2°F11.8°C 43% 0.1 mph S0.2 kmh S 0.4 mph0.6 kmh 26.81 in907.9 mb 0.00 in0.0 mm 0.00 in0.0 mm 0.00 in0.0 mm
10:10 AM 77.2°F25.1°C 52.9°F11.6°C 43% 0.3 mph SE0.5 kmh SE 0.4 mph0.6 kmh 26.81 in907.9 mb 0.00 in0.0 mm 0.00 in0.0 mm 0.00 in0.0 mm
10:05 AM 77.0°F25.0°C 52.2°F11.2°C 42% 0.8 mph SW1.3 kmh SW 1.1 mph1.8 kmh 26.81 in907.9 mb 0.00 in0.0 mm 0.00 in0.0 mm 0.00 in0.0 mm
10:00 AM 77.0°F25.0°C 51.4°F10.8°C 41% 0.3 mph S0.5 kmh S 0.4 mph0.6 kmh 26.82 in908.2 mb 0.00 in0.0 mm 0.00 in0.0 mm 0.00 in0.0 mm
09:55 AM 77.2°F25.1°C 52.9°F11.6°C 43% 0.3 mph SSE0.5 kmh SSE 0.6 mph1.0 kmh 26.82 in908.2 mb 0.00 in0.0 mm 0.00 in0.0 mm 0.00 in0.0 mm
09:50 AM 76.8°F24.9°C 52.7°F11.5°C 43% 0.1 mph NW0.2 kmh NW 0.5 mph0.8 kmh 26.81 in907.9 mb 0.00 in0.0 mm 0.00 in0.0 mm 0.00 in0.0 mm
09:45 AM 77.0°F25.0°C 53.4°F11.9°C 44% 0.3 mph ENE0.5 kmh ENE 0.7 mph1.1 kmh 26.81 in907.9 mb 0.00 in0.0 mm 0.00 in0.0 mm 0.00 in0.0 mm
09:40 AM 76.6°F24.8°C 54.3°F12.4°C 46% 0.1 mph N0.2 kmh N 0.5 mph0.8 kmh 26.82 in908.2 mb 0.00 in0.0 mm 0.00 in0.0 mm 0.00 in0.0 mm
09:36 AM 76.1°F24.5°C 55.6°F13.1°C 49% 0.2 mph SW0.3 kmh SW 0.5 mph0.8 kmh 26.82 in908.2 mb 0.00 in0.0 mm 0.00 in0.0 mm 0.00 in0.0 mm
09:31 AM 75.9°F24.4°C 54.3°F12.4°C 47% 0.3 mph E0.5 kmh E 0.5 mph0.8 kmh 26.81 in907.9 mb 0.00 in0.0 mm 0.00 in0.0 mm 0.00 in0.0 mm
09:26 AM 75.6°F24.2°C 55.0°F12.8°C 49% 0.3 mph E0.5 kmh E 0.7 mph1.1 kmh 26.81 in907.9 mb 0.00 in0.0 mm 0.00 in0.0 mm 0.00 in0.0 mm
09:21 AM 75.4°F24.1°C 53.8°F12.1°C 47% 0.3 mph SSW0.5 kmh SSW 0.5 mph0.8 kmh 26.81 in907.9 mb 0.00 in0.0 mm 0.00 in0.0 mm 0.00 in0.0 mm
09:16 AM 75.0°F23.9°C 55.0°F12.8°C 50% 0.2 mph SW0.3 kmh SW 0.4 mph0.6 kmh 26.81 in907.9 mb 0.00 in0.0 mm 0.00 in0.0 mm 0.00 in0.0 mm
09:11 AM 74.7°F23.7°C 54.9°F12.7°C 50% 0.2 mph SW0.3 kmh SW 0.3 mph0.5 kmh 26.81 in907.9 mb 0.00 in0.0 mm 0.00 in0.0 mm 0.00 in0.0 mm
09:06 AM 74.3°F23.5°C 55.6°F13.1°C 52% 0.1 mph SW0.2 kmh SW 0.3 mph0.5 kmh 26.81 in907.9 mb 0.00 in0.0 mm 0.00 in0.0 mm 0.00 in0.0 mm
09:01 AM 73.9°F23.3°C 55.8°F13.2°C 53% Calm Calm 0.3 mph0.5 kmh 26.81 in907.9 mb 0.00 in0.0 mm 0.00 in0.0 mm 0.00 in0.0 mm
08:56 AM 73.8°F23.2°C 55.0°F12.8°C 52% 0.4 mph NNE0.6 kmh NNE 0.5 mph0.8 kmh 26.81 in907.9 mb 0.00 in0.0 mm 0.00 in0.0 mm 0.00 in0.0 mm
08:51 AM 73.8°F23.2°C 55.6°F13.1°C 53% 0.2 mph N0.3 kmh N 0.5 mph0.8 kmh 26.81 in907.9 mb 0.00 in0.0 mm 0.00 in0.0 mm 0.00 in0.0 mm
08:46 AM 73.9°F23.3°C 55.8°F13.2°C 53% 0.4 mph N0.6 kmh N 0.5 mph0.8 kmh 26.81 in907.9 mb 0.00 in0.0 mm 0.00 in0.0 mm 0.00 in0.0 mm
08:41 AM 73.6°F23.1°C 55.4°F13.0°C 53% 0.3 mph N0.5 kmh N 0.5 mph0.8 kmh 26.81 in907.9 mb 0.00 in0.0 mm 0.00 in0.0 mm 0.00 in0.0 mm
08:36 AM 72.1°F22.3°C 54.5°F12.5°C 54% 0.4 mph N0.6 kmh N 0.5 mph0.8 kmh 26.81 in907.9 mb 0.00 in0.0 mm 0.00 in0.0 mm 0.00 in0.0 mm
08:31 AM 72.0°F22.2°C 54.0°F12.2°C 53% 0.6 mph NNW1.0 kmh NNW 0.7 mph1.1 kmh 26.81 in907.9 mb 0.00 in0.0 mm 0.00 in0.0 mm 0.00 in0.0 mm
08:26 AM 71.8°F22.1°C 53.8°F12.1°C 53% 0.4 mph NNW0.6 kmh NNW 0.7 mph1.1 kmh 26.81 in907.9 mb 0.00 in0.0 mm 0.00 in0.0 mm 0.00 in0.0 mm
08:21 AM 71.8°F22.1°C 53.8°F12.1°C 53% 0.5 mph N0.8 kmh N 0.7 mph1.1 kmh 26.81 in907.9 mb 0.00 in0.0 mm 0.00 in0.0 mm 0.00 in0.0 mm
08:16 AM 71.2°F21.8°C 53.2°F11.8°C 53% 0.6 mph NNW1.0 kmh NNW 0.9 mph1.4 kmh 26.81 in907.9 mb 0.00 in0.0 mm 0.00 in0.0 mm 0.00 in0.0 mm
08:11 AM 71.1°F21.7°C 52.5°F11.4°C 52% 0.7 mph NNW1.1 kmh NNW 0.9 mph1.4 kmh 26.81 in907.9 mb 0.00 in0.0 mm 0.00 in0.0 mm 0.00 in0.0 mm
08:06 AM 71.8°F22.1°C 52.2°F11.2°C 50% 0.5 mph N0.8 kmh N 0.8 mph1.3 kmh 26.81 in907.9 mb 0.00 in0.0 mm 0.00 in0.0 mm 0.00 in0.0 mm
08:01 AM 72.0°F22.2°C 51.8°F11.0°C 49% 0.8 mph N1.3 kmh N 0.9 mph1.4 kmh 26.81 in907.9 mb 0.00 in0.0 mm 0.00 in0.0 mm 0.00 in0.0 mm
07:56 AM 73.0°F22.8°C 51.6°F10.9°C 47% 0.8 mph N1.3 kmh N 1.1 mph1.8 kmh 26.81 in907.9 mb 0.00 in0.0 mm 0.00 in0.0 mm 0.00 in0.0 mm
07:51 AM 72.3°F22.4°C 52.2°F11.2°C 49% 1.0 mph N1.6 kmh N 1.1 mph1.8 kmh 26.81 in907.9 mb 0.00 in0.0 mm 0.00 in0.0 mm 0.00 in0.0 mm
07:46 AM 71.6°F22.0°C 51.4°F10.8°C 49% 0.8 mph NNW1.3 kmh NNW 1.0 mph1.6 kmh 26.81 in907.9 mb 0.00 in0.0 mm 0.00 in0.0 mm 0.00 in0.0 mm
07:41 AM 70.9°F21.6°C 51.3°F10.7°C 50% 0.8 mph N1.3 kmh N 1.3 mph2.1 kmh 26.81 in907.9 mb 0.00 in0.0 mm 0.00 in0.0 mm 0.00 in0.0 mm
07:36 AM 70.0°F21.1°C 51.6°F10.9°C 52% 0.8 mph N1.3 kmh N 1.1 mph1.8 kmh 26.80 in907.6 mb 0.00 in0.0 mm 0.00 in0.0 mm 0.00 in0.0 mm
07:31 AM 68.5°F20.3°C 51.3°F10.7°C 54% 1.0 mph N1.6 kmh N 1.3 mph2.1 kmh 26.80 in907.6 mb 0.00 in0.0 mm 0.00 in0.0 mm 0.00 in0.0 mm
07:26 AM 67.6°F19.8°C 50.4°F10.2°C 54% 1.3 mph N2.1 kmh N 1.7 mph2.7 kmh 26.81 in907.9 mb 0.00 in0.0 mm 0.00 in0.0 mm 0.00 in0.0 mm
07:21 AM 67.3°F19.6°C 50.5°F10.3°C 55% 1.4 mph N2.3 kmh N 1.6 mph2.6 kmh 26.81 in907.9 mb 0.00 in0.0 mm 0.00 in0.0 mm 0.00 in0.0 mm
07:16 AM 66.6°F19.2°C 50.9°F10.5°C 57% 0.5 mph N0.8 kmh N 0.7 mph1.1 kmh 26.80 in907.6 mb 0.00 in0.0 mm 0.00 in0.0 mm 0.00 in0.0 mm
07:11 AM 64.9°F18.3°C 50.2°F10.1°C 59% 0.9 mph N1.4 kmh N 1.1 mph1.8 kmh 26.80 in907.6 mb 0.00 in0.0 mm 0.00 in0.0 mm 0.00 in0.0 mm
07:06 AM 63.1°F17.3°C 49.1°F9.5°C 60% 0.4 mph NNW0.6 kmh NNW 0.6 mph1.0 kmh 26.80 in907.6 mb 0.00 in0.0 mm 0.00 in0.0 mm 0.00 in0.0 mm
07:01 AM 62.8°F17.1°C 49.6°F9.8°C 62% 1.2 mph N1.9 kmh N 1.6 mph2.6 kmh 26.80 in907.6 mb 0.00 in0.0 mm 0.00 in0.0 mm 0.00 in0.0 mm
06:56 AM 62.4°F16.9°C 49.3°F9.6°C 62% 1.4 mph N2.3 kmh N 1.7 mph2.7 kmh 26.80 in907.6 mb 0.00 in0.0 mm 0.00 in0.0 mm 0.00 in0.0 mm
06:51 AM 62.4°F16.9°C 49.3°F9.6°C 62% 1.0 mph NNW1.6 kmh NNW 1.3 mph2.1 kmh 26.80 in907.6 mb 0.00 in0.0 mm 0.00 in0.0 mm 0.00 in0.0 mm
06:46 AM 62.2°F16.8°C 49.1°F9.5°C 62% 1.4 mph N2.3 kmh N 1.7 mph2.7 kmh 26.80 in907.6 mb 0.00 in0.0 mm 0.00 in0.0 mm 0.00 in0.0 mm
06:41 AM 62.2°F16.8°C 49.1°F9.5°C 62% 1.0 mph NNW1.6 kmh NNW 1.3 mph2.1 kmh 26.79 in907.2 mb 0.00 in0.0 mm 0.00 in0.0 mm 0.00 in0.0 mm
06:36 AM 62.4°F16.9°C 49.3°F9.6°C 62% 1.2 mph NNW1.9 kmh NNW 1.8 mph2.9 kmh 26.80 in907.6 mb 0.00 in0.0 mm 0.00 in0.0 mm 0.00 in0.0 mm
06:31 AM 62.4°F16.9°C 49.3°F9.6°C 62% 1.2 mph NNW1.9 kmh NNW 1.5 mph2.4 kmh 26.79 in907.2 mb 0.00 in0.0 mm 0.00 in0.0 mm 0.00 in0.0 mm
06:26 AM 62.6°F17.0°C 49.5°F9.7°C 62% 0.8 mph NNW1.3 kmh NNW 1.4 mph2.3 kmh 26.79 in907.2 mb 0.00 in0.0 mm 0.00 in0.0 mm 0.00 in0.0 mm
06:21 AM 62.8°F17.1°C 49.6°F9.8°C 62% 1.0 mph NNW1.6 kmh NNW 1.6 mph2.6 kmh 26.79 in907.2 mb 0.00 in0.0 mm 0.00 in0.0 mm 0.00 in0.0 mm
06:16 AM 63.0°F17.2°C 49.8°F9.9°C 62% 1.5 mph N2.4 kmh N 1.7 mph2.7 kmh 26.78 in906.9 mb 0.00 in0.0 mm 0.00 in0.0 mm 0.00 in0.0 mm
06:11 AM 62.8°F17.1°C 49.6°F9.8°C 62% 1.5 mph N2.4 kmh N 1.9 mph3.1 kmh 26.78 in906.9 mb 0.00 in0.0 mm 0.00 in0.0 mm 0.00 in0.0 mm
06:06 AM 62.4°F16.9°C 49.6°F9.8°C 63% 1.5 mph N2.4 kmh N 2.1 mph3.4 kmh 26.79 in907.2 mb 0.00 in0.0 mm 0.00 in0.0 mm 0.00 in0.0 mm
06:01 AM 62.4°F16.9°C 49.6°F9.8°C 63% 1.3 mph N2.1 kmh N 1.5 mph2.4 kmh 26.78 in906.9 mb 0.00 in0.0 mm 0.00 in0.0 mm 0.00 in0.0 mm
05:56 AM 62.4°F16.9°C 49.6°F9.8°C 63% 1.2 mph N1.9 kmh N 1.6 mph2.6 kmh 26.78 in906.9 mb 0.00 in0.0 mm 0.00 in0.0 mm 0.00 in0.0 mm
05:51 AM 62.8°F17.1°C 49.6°F9.8°C 62% 1.3 mph N2.1 kmh N 1.6 mph2.6 kmh 26.78 in906.9 mb 0.00 in0.0 mm 0.00 in0.0 mm 0.00 in0.0 mm
05:46 AM 62.8°F17.1°C 49.6°F9.8°C 62% 1.4 mph N2.3 kmh N 2.0 mph3.2 kmh 26.78 in906.9 mb 0.00 in0.0 mm 0.00 in0.0 mm 0.00 in0.0 mm
05:41 AM 62.8°F17.1°C 49.6°F9.8°C 62% 1.4 mph N2.3 kmh N 1.7 mph2.7 kmh 26.78 in906.9 mb 0.00 in0.0 mm 0.00 in0.0 mm 0.00 in0.0 mm
05:36 AM 63.0°F17.2°C 49.8°F9.9°C 62% 1.2 mph N1.9 kmh N 1.4 mph2.3 kmh 26.78 in906.9 mb 0.00 in0.0 mm 0.00 in0.0 mm 0.00 in0.0 mm
05:31 AM 63.0°F17.2°C 49.8°F9.9°C 62% 1.3 mph N2.1 kmh N 1.7 mph2.7 kmh 26.78 in906.9 mb 0.00 in0.0 mm 0.00 in0.0 mm 0.00 in0.0 mm
05:26 AM 62.8°F17.1°C 50.0°F10.0°C 63% 1.6 mph N2.6 kmh N 2.0 mph3.2 kmh 26.78 in906.9 mb 0.00 in0.0 mm 0.00 in0.0 mm 0.00 in0.0 mm
05:21 AM 62.6°F17.0°C 49.8°F9.9°C 63% 1.1 mph N1.8 kmh N 1.4 mph2.3 kmh 26.78 in906.9 mb 0.00 in0.0 mm 0.00 in0.0 mm 0.00 in0.0 mm
05:16 AM 62.8°F17.1°C 50.0°F10.0°C 63% 1.5 mph N2.4 kmh N 1.8 mph2.9 kmh 26.78 in906.9 mb 0.00 in0.0 mm 0.00 in0.0 mm 0.00 in0.0 mm
05:11 AM 62.8°F17.1°C 49.6°F9.8°C 62% 1.3 mph N2.1 kmh N 1.6 mph2.6 kmh 26.78 in906.9 mb 0.00 in0.0 mm 0.00 in0.0 mm 0.00 in0.0 mm
05:06 AM 62.8°F17.1°C 49.6°F9.8°C 62% 1.4 mph N2.3 kmh N 1.7 mph2.7 kmh 26.78 in906.9 mb 0.00 in0.0 mm 0.00 in0.0 mm 0.00 in0.0 mm
05:01 AM 63.0°F17.2°C 49.8°F9.9°C 62% 1.0 mph NNW1.6 kmh NNW 1.3 mph2.1 kmh 26.78 in906.9 mb 0.00 in0.0 mm 0.00 in0.0 mm 0.00 in0.0 mm
04:56 AM 63.0°F17.2°C 49.8°F9.9°C 62% 1.4 mph N2.3 kmh N 1.9 mph3.1 kmh 26.78 in906.9 mb 0.00 in0.0 mm 0.00 in0.0 mm 0.00 in0.0 mm
04:51 AM 63.0°F17.2°C 49.8°F9.9°C 62% 1.3 mph N2.1 kmh N 1.7 mph2.7 kmh 26.78 in906.9 mb 0.00 in0.0 mm 0.00 in0.0 mm 0.00 in0.0 mm
04:46 AM 63.1°F17.3°C 49.8°F9.9°C 62% 1.4 mph N2.3 kmh N 1.8 mph2.9 kmh 26.78 in906.9 mb 0.00 in0.0 mm 0.00 in0.0 mm 0.00 in0.0 mm
04:41 AM 63.0°F17.2°C 49.8°F9.9°C 62% 1.5 mph N2.4 kmh N 1.9 mph3.1 kmh 26.78 in906.9 mb 0.00 in0.0 mm 0.00 in0.0 mm 0.00 in0.0 mm
04:36 AM 63.0°F17.2°C 49.8°F9.9°C 62% 1.1 mph N1.8 kmh N 1.4 mph2.3 kmh 26.77 in906.5 mb 0.00 in0.0 mm 0.00 in0.0 mm 0.00 in0.0 mm
04:31 AM 63.0°F17.2°C 49.8°F9.9°C 62% 1.3 mph N2.1 kmh N 1.6 mph2.6 kmh 26.77 in906.5 mb 0.00 in0.0 mm 0.00 in0.0 mm 0.00 in0.0 mm
04:26 AM 63.0°F17.2°C 49.8°F9.9°C 62% 1.6 mph N2.6 kmh N 1.9 mph3.1 kmh 26.78 in906.9 mb 0.00 in0.0 mm 0.00 in0.0 mm 0.00 in0.0 mm
04:21 AM 63.0°F17.2°C 49.8°F9.9°C 62% 1.5 mph N2.4 kmh N 1.8 mph2.9 kmh 26.78 in906.9 mb 0.00 in0.0 mm 0.00 in0.0 mm 0.00 in0.0 mm
04:16 AM 63.3°F17.4°C 50.0°F10.0°C 62% 1.2 mph N1.9 kmh N 1.6 mph2.6 kmh 26.78 in906.9 mb 0.00 in0.0 mm 0.00 in0.0 mm 0.00 in0.0 mm
04:11 AM 63.5°F17.5°C 49.3°F9.6°C 60% 1.3 mph N2.1 kmh N 1.9 mph3.1 kmh 26.77 in906.5 mb 0.00 in0.0 mm 0.00 in0.0 mm 0.00 in0.0 mm
04:06 AM 63.5°F17.5°C 49.3°F9.6°C 60% 1.5 mph N2.4 kmh N 1.8 mph2.9 kmh 26.78 in906.9 mb 0.00 in0.0 mm 0.00 in0.0 mm 0.00 in0.0 mm
04:01 AM 63.7°F17.6°C 49.5°F9.7°C 60% 1.4 mph N2.3 kmh N 1.8 mph2.9 kmh 26.78 in906.9 mb 0.00 in0.0 mm 0.00 in0.0 mm 0.00 in0.0 mm
03:56 AM 63.7°F17.6°C 49.5°F9.7°C 60% 1.3 mph N2.1 kmh N 1.9 mph3.1 kmh 26.78 in906.9 mb 0.00 in0.0 mm 0.00 in0.0 mm 0.00 in0.0 mm
03:51 AM 63.7°F17.6°C 49.5°F9.7°C 60% 1.3 mph N2.1 kmh N 1.9 mph3.1 kmh 26.78 in906.9 mb 0.00 in0.0 mm 0.00 in0.0 mm 0.00 in0.0 mm
03:46 AM 63.5°F17.5°C 49.3°F9.6°C 60% 1.4 mph N2.3 kmh N 1.9 mph3.1 kmh 26.78 in906.9 mb 0.00 in0.0 mm 0.00 in0.0 mm 0.00 in0.0 mm
03:41 AM 63.5°F17.5°C 49.3°F9.6°C 60% 1.4 mph N2.3 kmh N 1.7 mph2.7 kmh 26.78 in906.9 mb 0.00 in0.0 mm 0.00 in0.0 mm 0.00 in0.0 mm
03:36 AM 63.5°F17.5°C 50.2°F10.1°C 62% 1.5 mph N2.4 kmh N 1.8 mph2.9 kmh 26.78 in906.9 mb 0.00 in0.0 mm 0.00 in0.0 mm 0.00 in0.0 mm
03:31 AM 63.5°F17.5°C 49.3°F9.6°C 60% 1.5 mph N2.4 kmh N 1.7 mph2.7 kmh 26.78 in906.9 mb 0.00 in0.0 mm 0.00 in0.0 mm 0.00 in0.0 mm
03:26 AM 63.7°F17.6°C 49.5°F9.7°C 60% 1.3 mph NNW2.1 kmh NNW 1.6 mph2.6 kmh 26.78 in906.9 mb 0.00 in0.0 mm 0.00 in0.0 mm 0.00 in0.0 mm
03:21 AM 64.0°F17.8°C 49.8°F9.9°C 60% 1.2 mph N1.9 kmh N 1.7 mph2.7 kmh 26.78 in906.9 mb 0.00 in0.0 mm 0.00 in0.0 mm 0.00 in0.0 mm
03:16 AM 64.0°F17.8°C 49.8°F9.9°C 60% 1.3 mph N2.1 kmh N 1.9 mph3.1 kmh 26.78 in906.9 mb 0.00 in0.0 mm 0.00 in0.0 mm 0.00 in0.0 mm
03:11 AM 64.0°F17.8°C 49.8°F9.9°C 60% 1.3 mph N2.1 kmh N 1.7 mph2.7 kmh 26.78 in906.9 mb 0.00 in0.0 mm 0.00 in0.0 mm 0.00 in0.0 mm
03:06 AM 64.4°F18.0°C 49.8°F9.9°C 59% 1.0 mph N1.6 kmh N 1.5 mph2.4 kmh 26.78 in906.9 mb 0.00 in0.0 mm 0.00 in0.0 mm 0.00 in0.0 mm
03:01 AM 64.6°F18.1°C 50.0°F10.0°C 59% 1.3 mph NNW2.1 kmh NNW 1.7 mph2.7 kmh 26.78 in906.9 mb 0.00 in0.0 mm 0.00 in0.0 mm 0.00 in0.0 mm
02:56 AM 64.6°F18.1°C 50.0°F10.0°C 59% 1.7 mph N2.7 kmh N 2.3 mph3.7 kmh 26.78 in906.9 mb 0.00 in0.0 mm 0.00 in0.0 mm 0.00 in0.0 mm
02:51 AM 64.6°F18.1°C 50.0°F10.0°C 59% 1.3 mph N2.1 kmh N 2.1 mph3.4 kmh 26.77 in906.5 mb 0.00 in0.0 mm 0.00 in0.0 mm 0.00 in0.0 mm
02:46 AM 64.2°F17.9°C 49.6°F9.8°C 59% 1.3 mph N2.1 kmh N 2.1 mph3.4 kmh 26.77 in906.5 mb 0.00 in0.0 mm 0.00 in0.0 mm 0.00 in0.0 mm
02:41 AM 64.0°F17.8°C 49.8°F9.9°C 60% 1.1 mph N1.8 kmh N 1.5 mph2.4 kmh 26.77 in906.5 mb 0.00 in0.0 mm 0.00 in0.0 mm 0.00 in0.0 mm
02:36 AM 64.2°F17.9°C 50.0°F10.0°C 60% 0.9 mph N1.4 kmh N 1.6 mph2.6 kmh 26.77 in906.5 mb 0.00 in0.0 mm 0.00 in0.0 mm 0.00 in0.0 mm
02:31 AM 64.0°F17.8°C 49.8°F9.9°C 60% 1.0 mph N1.6 kmh N 1.5 mph2.4 kmh 26.77 in906.5 mb 0.00 in0.0 mm 0.00 in0.0 mm 0.00 in0.0 mm
02:26 AM 64.0°F17.8°C 49.5°F9.7°C 59% 0.7 mph N1.1 kmh N 0.9 mph1.4 kmh 26.77 in906.5 mb 0.00 in0.0 mm 0.00 in0.0 mm 0.00 in0.0 mm
02:21 AM 64.2°F17.9°C 49.6°F9.8°C 59% 0.4 mph NNW0.6 kmh NNW 0.6 mph1.0 kmh 26.77 in906.5 mb 0.00 in0.0 mm 0.00 in0.0 mm 0.00 in0.0 mm
02:16 AM 64.6°F18.1°C 50.0°F10.0°C 59% 0.7 mph N1.1 kmh N 1.4 mph2.3 kmh 26.77 in906.5 mb 0.00 in0.0 mm 0.00 in0.0 mm 0.00 in0.0 mm
02:11 AM 64.6°F18.1°C 50.0°F10.0°C 59% 1.2 mph N1.9 kmh N 2.1 mph3.4 kmh 26.77 in906.5 mb 0.00 in0.0 mm 0.00 in0.0 mm 0.00 in0.0 mm
02:06 AM 64.4°F18.0°C 49.8°F9.9°C 59% 1.2 mph N1.9 kmh N 1.8 mph2.9 kmh 26.77 in906.5 mb 0.00 in0.0 mm 0.00 in0.0 mm 0.00 in0.0 mm
02:01 AM 64.4°F18.0°C 49.8°F9.9°C 59% 1.3 mph N2.1 kmh N 1.7 mph2.7 kmh 26.78 in906.9 mb 0.00 in0.0 mm 0.00 in0.0 mm 0.00 in0.0 mm
01:56 AM 64.4°F18.0°C 49.8°F9.9°C 59% 1.3 mph N2.1 kmh N 1.8 mph2.9 kmh 26.78 in906.9 mb 0.00 in0.0 mm 0.00 in0.0 mm 0.00 in0.0 mm
01:51 AM 64.2°F17.9°C 49.6°F9.8°C 59% 1.3 mph N2.1 kmh N 1.7 mph2.7 kmh 26.77 in906.5 mb 0.00 in0.0 mm 0.00 in0.0 mm 0.00 in0.0 mm
01:46 AM 64.4°F18.0°C 49.8°F9.9°C 59% 1.3 mph N2.1 kmh N 1.8 mph2.9 kmh 26.78 in906.9 mb 0.00 in0.0 mm 0.00 in0.0 mm 0.00 in0.0 mm
01:41 AM 64.4°F18.0°C 49.8°F9.9°C 59% 1.2 mph N1.9 kmh N 1.8 mph2.9 kmh 26.78 in906.9 mb 0.00 in0.0 mm 0.00 in0.0 mm 0.00 in0.0 mm
01:36 AM 64.6°F18.1°C 50.0°F10.0°C 59% 1.4 mph N2.3 kmh N 1.8 mph2.9 kmh 26.78 in906.9 mb 0.00 in0.0 mm 0.00 in0.0 mm 0.00 in0.0 mm
01:31 AM 64.8°F18.2°C 49.6°F9.8°C 58% 1.1 mph NNW1.8 kmh NNW 1.7 mph2.7 kmh 26.77 in906.5 mb 0.00 in0.0 mm 0.00 in0.0 mm 0.00 in0.0 mm
01:26 AM 64.8°F18.2°C 49.6°F9.8°C 58% 1.2 mph N1.9 kmh N 1.7 mph2.7 kmh 26.77 in906.5 mb 0.00 in0.0 mm 0.00 in0.0 mm 0.00 in0.0 mm
01:21 AM 64.6°F18.1°C 49.5°F9.7°C 58% 1.5 mph N2.4 kmh N 2.1 mph3.4 kmh 26.77 in906.5 mb 0.00 in0.0 mm 0.00 in0.0 mm 0.00 in0.0 mm
01:16 AM 64.8°F18.2°C 49.6°F9.8°C 58% 1.2 mph N1.9 kmh N 1.9 mph3.1 kmh 26.77 in906.5 mb 0.00 in0.0 mm 0.00 in0.0 mm 0.00 in0.0 mm
01:11 AM 64.8°F18.2°C 49.6°F9.8°C 58% 1.2 mph N1.9 kmh N 1.6 mph2.6 kmh 26.77 in906.5 mb 0.00 in0.0 mm 0.00 in0.0 mm 0.00 in0.0 mm
01:06 AM 65.3°F18.5°C 50.2°F10.1°C 58% 1.4 mph N2.3 kmh N 1.7 mph2.7 kmh 26.77 in906.5 mb 0.00 in0.0 mm 0.00 in0.0 mm 0.00 in0.0 mm
01:01 AM 65.1°F18.4°C 50.0°F10.0°C 58% 1.6 mph N2.6 kmh N 2.3 mph3.7 kmh 26.77 in906.5 mb 0.00 in0.0 mm 0.00 in0.0 mm 0.00 in0.0 mm
12:56 AM 65.1°F18.4°C 50.0°F10.0°C 58% 1.2 mph NNW1.9 kmh NNW 1.5 mph2.4 kmh 26.78 in906.9 mb 0.00 in0.0 mm 0.00 in0.0 mm 0.00 in0.0 mm
12:51 AM 65.1°F18.4°C 50.0°F10.0°C 58% 1.2 mph N1.9 kmh N 1.5 mph2.4 kmh 26.77 in906.5 mb 0.00 in0.0 mm 0.00 in0.0 mm 0.00 in0.0 mm
12:46 AM 64.8°F18.2°C 49.6°F9.8°C 58% 1.3 mph N2.1 kmh N 1.5 mph2.4 kmh 26.77 in906.5 mb 0.00 in0.0 mm 0.00 in0.0 mm 0.00 in0.0 mm
12:41 AM 64.8°F18.2°C 49.6°F9.8°C 58% 1.2 mph N1.9 kmh N 1.5 mph2.4 kmh 26.77 in906.5 mb 0.00 in0.0 mm 0.00 in0.0 mm 0.00 in0.0 mm
12:36 AM 64.9°F18.3°C 49.8°F9.9°C 58% 1.2 mph N1.9 kmh N 1.4 mph2.3 kmh 26.77 in906.5 mb 0.00 in0.0 mm 0.00 in0.0 mm 0.00 in0.0 mm
12:31 AM 65.3°F18.5°C 50.2°F10.1°C 58% 1.2 mph N1.9 kmh N 1.5 mph2.4 kmh 26.77 in906.5 mb 0.00 in0.0 mm 0.00 in0.0 mm 0.00 in0.0 mm
12:26 AM 65.1°F18.4°C 50.0°F10.0°C 58% 1.3 mph N2.1 kmh N 2.0 mph3.2 kmh 26.77 in906.5 mb 0.00 in0.0 mm 0.00 in0.0 mm 0.00 in0.0 mm
12:21 AM 64.9°F18.3°C 49.8°F9.9°C 58% 1.1 mph N1.8 kmh N 1.5 mph2.4 kmh 26.77 in906.5 mb 0.00 in0.0 mm 0.00 in0.0 mm 0.00 in0.0 mm
12:16 AM 64.9°F18.3°C 49.8°F9.9°C 58% 1.3 mph N2.1 kmh N 1.7 mph2.7 kmh 26.77 in906.5 mb 0.00 in0.0 mm 0.00 in0.0 mm 0.00 in0.0 mm
12:11 AM 65.1°F18.4°C 50.0°F10.0°C 58% 1.4 mph N2.3 kmh N 1.7 mph2.7 kmh 26.77 in906.5 mb 0.00 in0.0 mm 0.00 in0.0 mm 0.00 in0.0 mm
12:06 AM 65.1°F18.4°C 50.0°F10.0°C 58% 1.5 mph N2.4 kmh N 1.7 mph2.7 kmh 26.77 in906.5 mb 0.00 in0.0 mm 0.00 in0.0 mm 0.00 in0.0 mm
12:01 AM 65.5°F18.6°C 49.8°F9.9°C 57% 1.2 mph N1.9 kmh N 1.6 mph2.6 kmh 26.77 in906.5 mb 0.00 in0.0 mm 0.00 in0.0 mm 0.00 in0.0 mm